createdAt,value
2019-02-02T00:00:35.308Z,76.02
2019-02-02T00:03:03.599Z,75.57
2019-02-02T00:05:31.379Z,75.89
2019-02-02T00:07:59.159Z,76.17
2019-02-02T00:10:26.963Z,75.47
2019-02-02T00:12:54.737Z,75.66
2019-02-02T00:15:22.571Z,75.60
2019-02-02T00:17:50.369Z,75.40
2019-02-02T00:20:18.211Z,75.28
2019-02-02T00:22:46.131Z,75.71
2019-02-02T00:25:14.039Z,75.71
2019-02-02T00:27:41.900Z,75.77
2019-02-02T00:30:10.956Z,75.61
2019-02-02T00:32:38.743Z,75.85
2019-02-02T00:35:06.623Z,76.08
2019-02-02T00:37:34.405Z,75.47
2019-02-02T00:40:02.303Z,75.96
2019-02-02T00:42:30.055Z,76.06
2019-02-02T00:44:57.831Z,75.92
2019-02-02T00:47:25.595Z,75.65
2019-02-02T00:49:53.402Z,75.77
2019-02-02T00:52:21.147Z,75.71
2019-02-02T00:54:48.925Z,76.03
2019-02-02T00:57:16.656Z,75.99
2019-02-02T00:59:44.410Z,76.23
2019-02-02T01:02:12.118Z,76.20
2019-02-02T01:04:39.886Z,76.34
2019-02-02T01:07:07.640Z,76.42
2019-02-02T01:09:35.432Z,75.77
2019-02-02T01:12:03.315Z,75.66
2019-02-02T01:14:31.066Z,75.71
2019-02-02T01:16:58.847Z,75.79
2019-02-02T01:19:26.614Z,75.40
2019-02-02T01:21:54.386Z,75.43
2019-02-02T01:24:22.240Z,75.45
2019-02-02T01:26:50.004Z,75.48
2019-02-02T01:29:17.774Z,75.41
2019-02-02T01:31:45.572Z,75.75
2019-02-02T01:34:13.362Z,75.57
2019-02-02T01:36:41.114Z,75.75
2019-02-02T01:39:08.880Z,75.69
2019-02-02T01:41:36.700Z,75.78
2019-02-02T01:44:04.676Z,76.02
2019-02-02T01:46:32.449Z,76.26
2019-02-02T01:49:00.239Z,76.35
2019-02-02T01:51:28.052Z,76.66
2019-02-02T01:53:55.800Z,76.27
2019-02-02T01:56:23.555Z,76.29
2019-02-02T01:58:51.292Z,76.14
2019-02-02T02:01:19.098Z,75.80
2019-02-02T02:03:46.823Z,76.09
2019-02-02T02:06:14.613Z,76.15
2019-02-02T02:08:42.377Z,76.54
2019-02-02T02:11:10.262Z,76.47
2019-02-02T02:13:38.133Z,76.33
2019-02-02T02:16:05.888Z,76.18
2019-02-02T02:18:33.677Z,76.24
2019-02-02T02:21:01.466Z,76.31
2019-02-02T02:23:29.277Z,76.22
2019-02-02T02:25:57.049Z,76.41
2019-02-02T02:28:28.180Z,76.27
2019-02-02T02:30:54.511Z,76.40
2019-02-02T02:33:22.273Z,76.53
2019-02-02T02:35:50.006Z,76.60
2019-02-02T02:38:17.795Z,76.32
2019-02-02T02:40:45.561Z,76.61
2019-02-02T02:43:13.347Z,76.07
2019-02-02T02:45:41.067Z,76.33
2019-02-02T02:48:08.834Z,76.30
2019-02-02T02:50:36.607Z,76.38
2019-02-02T02:53:04.408Z,76.58
2019-02-02T02:55:32.195Z,76.57
2019-02-02T02:57:59.997Z,76.91
2019-02-02T03:00:27.808Z,76.68
2019-02-02T03:02:55.670Z,76.75
2019-02-02T03:05:23.427Z,76.74
2019-02-02T03:07:52.004Z,76.88
2019-02-02T03:10:21.319Z,77.15
2019-02-02T03:12:49.433Z,77.06
2019-02-02T03:15:18.010Z,77.76
2019-02-02T03:17:45.921Z,78.17
2019-02-02T03:20:14.324Z,78.62
2019-02-02T03:22:42.148Z,78.97
2019-02-02T03:25:15.932Z,79.00
2019-02-02T03:27:43.715Z,78.57
2019-02-02T03:30:14.700Z,78.27
2019-02-02T03:32:42.565Z,78.32
2019-02-02T03:35:11.765Z,78.19
2019-02-02T03:37:39.541Z,77.77
2019-02-02T03:40:14.029Z,77.80
2019-02-02T03:42:41.757Z,77.82
2019-02-02T03:45:10.666Z,77.63
2019-02-02T03:47:38.400Z,77.64
2019-02-02T03:50:07.199Z,77.33
2019-02-02T03:52:34.972Z,77.43
2019-02-02T03:55:03.100Z,77.14
2019-02-02T03:57:30.828Z,77.19
2019-02-02T03:59:58.592Z,77.39
2019-02-02T04:02:26.330Z,77.50
2019-02-02T04:04:54.091Z,77.72
2019-02-02T04:07:21.842Z,77.52
2019-02-02T04:09:49.688Z,77.62
2019-02-02T04:12:17.493Z,77.30
2019-02-02T04:14:45.289Z,77.78
2019-02-02T04:17:13.059Z,77.99
2019-02-02T04:19:40.825Z,78.60
2019-02-02T04:22:08.595Z,78.92
2019-02-02T04:24:36.336Z,79.16
2019-02-02T04:27:04.071Z,79.73
2019-02-02T04:29:31.848Z,79.62
2019-02-02T04:31:59.607Z,79.41
2019-02-02T04:34:27.395Z,80.09
2019-02-02T04:36:55.127Z,79.75
2019-02-02T04:39:22.909Z,79.55
2019-02-02T04:41:50.680Z,79.69
2019-02-02T04:44:18.461Z,80.17
2019-02-02T04:46:46.205Z,79.67
2019-02-02T04:49:13.993Z,79.26
2019-02-02T04:51:41.745Z,79.33
2019-02-02T04:54:09.485Z,80.10
2019-02-02T04:56:37.231Z,79.94
2019-02-02T04:59:05.014Z,80.16
2019-02-02T05:01:34.116Z,80.78
2019-02-02T05:04:01.917Z,80.22
2019-02-02T05:06:29.683Z,80.01
2019-02-02T05:08:57.431Z,80.33
2019-02-02T05:11:25.181Z,80.19
2019-02-02T05:13:52.933Z,80.08
2019-02-02T05:16:20.716Z,80.61
2019-02-02T05:18:48.471Z,81.30
2019-02-02T05:21:16.258Z,81.75
2019-02-02T05:23:43.992Z,81.42
2019-02-02T05:26:11.789Z,80.83
2019-02-02T05:28:39.590Z,80.52
2019-02-02T05:31:07.380Z,80.24
2019-02-02T05:33:35.153Z,80.01
2019-02-02T05:36:03.008Z,79.94
2019-02-02T05:38:30.766Z,79.92
2019-02-02T05:40:58.530Z,79.91
2019-02-02T05:43:26.284Z,80.35
2019-02-02T05:45:54.040Z,81.21
2019-02-02T05:48:21.886Z,81.53
2019-02-02T05:50:49.719Z,81.81
2019-02-02T05:53:17.434Z,81.17
2019-02-02T05:55:45.196Z,80.85
2019-02-02T05:58:12.948Z,80.94
2019-02-02T06:00:46.960Z,80.78
2019-02-02T06:03:14.692Z,80.54
2019-02-02T06:05:42.456Z,79.78
2019-02-02T06:08:10.234Z,80.01
2019-02-02T06:10:37.997Z,80.76
2019-02-02T06:13:05.749Z,81.20
2019-02-02T06:15:33.486Z,81.43
2019-02-02T06:18:01.255Z,82.54
2019-02-02T06:20:29.022Z,82.32
2019-02-02T06:22:56.757Z,83.17
2019-02-02T06:25:24.550Z,83.31
2019-02-02T06:27:52.300Z,83.48
2019-02-02T06:30:20.273Z,83.34
2019-02-02T06:32:48.263Z,83.14
2019-02-02T06:35:16.231Z,83.64
2019-02-02T06:37:43.997Z,83.75
2019-02-02T06:40:12.418Z,83.68
2019-02-02T06:42:40.293Z,84.10
2019-02-02T06:45:12.989Z,84.30
2019-02-02T06:47:40.782Z,84.01
2019-02-02T06:50:12.541Z,83.36
2019-02-02T06:52:40.340Z,83.20
2019-02-02T06:55:09.216Z,82.97
2019-02-02T06:57:36.975Z,82.69
2019-02-02T07:00:15.860Z,82.23
2019-02-02T07:02:37.123Z,82.10
2019-02-02T07:05:05.453Z,82.60
2019-02-02T07:07:33.196Z,82.34
2019-02-02T07:10:00.932Z,82.49
2019-02-02T07:12:28.757Z,82.71
2019-02-02T07:14:56.497Z,82.61
2019-02-02T07:17:24.232Z,82.46
2019-02-02T07:19:51.966Z,82.35
2019-02-02T07:22:19.760Z,82.40
2019-02-02T07:24:50.071Z,82.13
2019-02-02T07:27:17.204Z,82.17
2019-02-02T07:29:44.988Z,82.31
2019-02-02T07:32:12.759Z,82.01
2019-02-02T07:34:40.522Z,81.66
2019-02-02T07:37:08.284Z,81.54
2019-02-02T07:39:36.056Z,81.28
2019-02-02T07:42:03.882Z,80.76
2019-02-02T07:44:31.723Z,80.81
2019-02-02T07:46:59.500Z,80.65
2019-02-02T07:49:27.282Z,80.35
2019-02-02T07:51:55.034Z,80.37
2019-02-02T07:54:22.816Z,80.84
2019-02-02T07:56:50.537Z,81.57
2019-02-02T07:59:18.299Z,81.53
2019-02-02T08:01:46.040Z,81.25
2019-02-02T08:04:13.792Z,81.48
2019-02-02T08:06:41.567Z,81.85
2019-02-02T08:09:09.436Z,81.68
2019-02-02T08:11:37.209Z,81.31
2019-02-02T08:14:05.317Z,81.01
2019-02-02T08:16:33.087Z,80.88
2019-02-02T08:19:00.829Z,80.75
2019-02-02T08:21:28.587Z,80.26
2019-02-02T08:23:56.385Z,80.09
2019-02-02T08:26:24.149Z,80.30
2019-02-02T08:28:51.934Z,80.48
2019-02-02T08:31:19.740Z,80.08
2019-02-02T08:33:47.506Z,80.15
2019-02-02T08:36:15.303Z,80.19
2019-02-02T08:38:43.073Z,80.64
2019-02-02T08:41:10.894Z,80.15
2019-02-02T08:43:38.919Z,79.84
2019-02-02T08:46:06.737Z,79.49
2019-02-02T08:48:34.548Z,79.40
2019-02-02T08:51:02.374Z,79.48
2019-02-02T08:53:30.238Z,79.70
2019-02-02T08:55:58.081Z,79.66
2019-02-02T08:58:25.832Z,79.75
2019-02-02T09:01:03.819Z,79.43
2019-02-02T09:03:23.501Z,79.20
2019-02-02T09:05:51.439Z,78.28
2019-02-02T09:08:19.235Z,78.63
2019-02-02T09:10:47.056Z,78.41
2019-02-02T09:13:15.343Z,78.21
2019-02-02T09:15:43.225Z,77.88
2019-02-02T09:18:11.083Z,78.16
2019-02-02T09:20:38.928Z,77.58
2019-02-02T09:23:06.905Z,77.90
2019-02-02T09:25:34.794Z,77.57
2019-02-02T09:28:02.634Z,77.35
2019-02-02T09:30:33.599Z,77.29
2019-02-02T09:33:01.382Z,77.50
2019-02-02T09:35:29.352Z,78.09
2019-02-02T09:37:57.134Z,77.87
2019-02-02T09:40:25.719Z,77.22
2019-02-02T09:42:53.670Z,77.02
2019-02-02T09:45:21.748Z,76.98
2019-02-02T09:47:50.127Z,77.20
2019-02-02T09:50:20.444Z,77.66
2019-02-02T09:52:48.240Z,77.05
2019-02-02T09:55:18.140Z,76.64
2019-02-02T09:57:47.168Z,76.83
2019-02-02T10:00:21.433Z,76.28
2019-02-02T10:02:49.640Z,76.45
2019-02-02T10:05:19.257Z,76.51
2019-02-02T10:07:47.898Z,76.07
2019-02-02T10:10:18.758Z,76.37
2019-02-02T10:12:46.525Z,76.74
2019-02-02T10:15:16.409Z,75.79
2019-02-02T10:17:44.204Z,76.26
2019-02-02T10:20:15.488Z,76.08
2019-02-02T10:22:43.485Z,75.91
2019-02-02T10:25:14.040Z,77.00
2019-02-02T10:27:41.897Z,77.33
2019-02-02T10:30:36.982Z,76.77
2019-02-02T10:33:05.173Z,76.71
2019-02-02T10:35:33.152Z,75.86
2019-02-02T10:38:01.205Z,75.86
2019-02-02T10:40:30.125Z,76.00
2019-02-02T10:42:58.127Z,75.92
2019-02-02T10:45:25.901Z,76.52
2019-02-02T10:47:53.689Z,76.12
2019-02-02T10:50:21.579Z,76.21
2019-02-02T10:52:49.672Z,76.39
2019-02-02T10:55:17.631Z,76.79
2019-02-02T10:57:45.527Z,77.03
2019-02-02T11:00:20.489Z,77.84
2019-02-02T11:02:48.267Z,78.38
2019-02-02T11:05:16.449Z,78.07
2019-02-02T11:07:44.340Z,77.62
2019-02-02T11:10:18.279Z,77.62
2019-02-02T11:12:46.472Z,77.75
2019-02-02T11:15:15.929Z,76.85
2019-02-02T11:17:43.819Z,77.24
2019-02-02T11:20:17.579Z,77.29
2019-02-02T11:22:44.950Z,77.89
2019-02-02T11:25:13.073Z,78.20
2019-02-02T11:27:40.984Z,78.17
2019-02-02T11:30:10.800Z,77.74
2019-02-02T11:32:38.653Z,77.72
2019-02-02T11:35:08.876Z,77.54
2019-02-02T11:37:36.710Z,77.09
2019-02-02T11:40:06.010Z,77.34
2019-02-02T11:42:33.929Z,76.94
2019-02-02T11:45:01.854Z,77.40
2019-02-02T11:47:29.676Z,77.17
2019-02-02T11:49:57.496Z,77.00
2019-02-02T11:52:25.284Z,77.22
2019-02-02T11:54:53.204Z,76.50
2019-02-02T11:57:21.067Z,77.80
2019-02-02T11:59:48.840Z,79.51
2019-02-02T12:02:16.634Z,79.04
2019-02-02T12:04:44.417Z,78.87
2019-02-02T12:07:12.202Z,79.35
2019-02-02T12:09:40.073Z,79.61
2019-02-02T12:12:07.845Z,79.37
2019-02-02T12:14:35.653Z,79.65
2019-02-02T12:17:03.426Z,79.29
2019-02-02T12:19:31.231Z,79.19
2019-02-02T12:21:58.976Z,80.39
2019-02-02T12:24:26.783Z,80.73
2019-02-02T12:26:54.595Z,81.08
2019-02-02T12:29:22.472Z,81.36
2019-02-02T12:31:50.283Z,81.29
2019-02-02T12:34:18.076Z,80.96
2019-02-02T12:36:45.871Z,79.87
2019-02-02T12:39:13.668Z,79.84
2019-02-02T12:41:41.469Z,80.28
2019-02-02T12:44:09.619Z,81.23
2019-02-02T12:46:37.483Z,80.49
2019-02-02T12:49:05.270Z,80.25
2019-02-02T12:51:33.051Z,80.08
2019-02-02T12:54:00.977Z,80.58
2019-02-02T12:56:28.791Z,80.69
2019-02-02T12:58:56.617Z,80.72
2019-02-02T13:01:24.437Z,80.42
2019-02-02T13:04:01.335Z,80.47
2019-02-02T13:06:21.963Z,80.00
2019-02-02T13:08:49.807Z,79.73
2019-02-02T13:11:17.639Z,79.96
2019-02-02T13:13:45.437Z,80.51
2019-02-02T13:16:13.255Z,80.09
2019-02-02T13:18:41.117Z,80.13
2019-02-02T13:21:09.518Z,80.23
2019-02-02T13:23:37.312Z,80.29
2019-02-02T13:26:05.888Z,80.55
2019-02-02T13:28:36.360Z,80.20
2019-02-02T13:31:04.297Z,80.30
2019-02-02T13:33:32.149Z,80.26
2019-02-02T13:35:59.928Z,80.16
2019-02-02T13:38:27.705Z,80.30
2019-02-02T13:40:55.521Z,80.97
2019-02-02T13:43:23.487Z,80.76
2019-02-02T13:45:51.394Z,80.64
2019-02-02T13:48:19.202Z,81.32
2019-02-02T13:50:47.069Z,81.94
2019-02-02T13:53:15.024Z,82.20
2019-02-02T13:55:42.855Z,82.20
2019-02-02T13:58:10.694Z,82.86
2019-02-02T14:00:38.512Z,82.80
2019-02-02T14:03:06.456Z,83.00
2019-02-02T14:05:34.344Z,83.03
2019-02-02T14:08:02.392Z,83.16
2019-02-02T14:10:31.405Z,83.20
2019-02-02T14:12:59.317Z,83.28
2019-02-02T14:15:27.086Z,82.99
2019-02-02T14:17:54.935Z,82.79
2019-02-02T14:20:22.876Z,82.15
2019-02-02T14:22:50.841Z,82.30
2019-02-02T14:25:18.763Z,82.04
2019-02-02T14:27:46.593Z,82.25
2019-02-02T14:30:19.734Z,81.74
2019-02-02T14:32:47.648Z,81.65
2019-02-02T14:35:17.041Z,81.39
2019-02-02T14:37:45.143Z,82.21
2019-02-02T14:40:14.022Z,82.78
2019-02-02T14:42:41.937Z,82.63
2019-02-02T14:45:12.947Z,83.25
2019-02-02T14:47:40.729Z,83.25
2019-02-02T14:50:12.587Z,83.00
2019-02-02T14:52:40.385Z,83.02
2019-02-02T14:55:10.529Z,82.83
2019-02-02T14:57:38.272Z,82.42
2019-02-02T15:00:11.866Z,82.73
2019-02-02T15:02:39.746Z,83.40
2019-02-02T15:05:09.419Z,82.59
2019-02-02T15:07:37.276Z,81.41
2019-02-02T15:10:05.927Z,80.12
2019-02-02T15:12:33.729Z,79.72
2019-02-02T15:15:01.491Z,80.22
2019-02-02T15:17:29.289Z,80.13
2019-02-02T15:19:57.087Z,80.76
2019-02-02T15:22:24.861Z,81.61
2019-02-02T15:24:52.651Z,81.82
2019-02-02T15:27:20.405Z,81.83
2019-02-02T15:29:48.269Z,82.07
2019-02-02T15:32:16.066Z,82.41
2019-02-02T15:34:43.834Z,82.32
2019-02-02T15:37:11.580Z,82.63
2019-02-02T15:39:39.396Z,82.87
2019-02-02T15:42:07.227Z,82.57
2019-02-02T15:44:35.148Z,82.92
2019-02-02T15:47:02.940Z,82.19
2019-02-02T15:49:30.833Z,82.92
2019-02-02T15:51:58.612Z,83.04
2019-02-02T15:54:26.404Z,83.36
2019-02-02T15:56:54.200Z,83.83
2019-02-02T15:59:21.986Z,84.00
2019-02-02T16:01:49.776Z,83.69
2019-02-02T16:04:17.545Z,84.51
2019-02-02T16:06:45.514Z,85.41
2019-02-02T16:09:13.302Z,85.89
2019-02-02T16:11:41.077Z,85.54
2019-02-02T16:14:08.844Z,85.53
2019-02-02T16:16:36.617Z,85.40
2019-02-02T16:19:04.655Z,85.07
2019-02-02T16:21:32.683Z,84.58
2019-02-02T16:24:00.456Z,85.03
2019-02-02T16:26:28.257Z,84.61
2019-02-02T16:28:56.080Z,84.00
2019-02-02T16:31:23.939Z,83.36
2019-02-02T16:34:01.485Z,83.69
2019-02-02T16:36:21.415Z,83.92
2019-02-02T16:38:49.190Z,83.58
2019-02-02T16:41:16.963Z,83.52
2019-02-02T16:43:44.819Z,83.61
2019-02-02T16:46:12.636Z,83.76
2019-02-02T16:48:40.472Z,83.73
2019-02-02T16:51:08.382Z,84.09
2019-02-02T16:53:36.153Z,83.97
2019-02-02T16:56:04.155Z,83.59
2019-02-02T16:58:31.982Z,84.12
2019-02-02T17:01:01.693Z,84.47
2019-02-02T17:03:31.345Z,84.27
2019-02-02T17:05:59.112Z,84.44
2019-02-02T17:08:26.890Z,83.88
2019-02-02T17:10:54.745Z,84.44
2019-02-02T17:13:22.545Z,85.22
2019-02-02T17:15:50.376Z,84.91
2019-02-02T17:18:18.163Z,85.39
2019-02-02T17:20:45.923Z,85.64
2019-02-02T17:23:13.749Z,85.13
2019-02-02T17:25:41.611Z,85.17
2019-02-02T17:28:09.524Z,86.11
2019-02-02T17:30:37.438Z,85.28
2019-02-02T17:33:08.759Z,84.71
2019-02-02T17:35:36.632Z,85.06
2019-02-02T17:38:04.534Z,85.16
2019-02-02T17:40:32.299Z,84.62
2019-02-02T17:43:00.154Z,84.21
2019-02-02T17:45:30.762Z,83.82
2019-02-02T17:47:58.714Z,84.39
2019-02-02T17:50:26.595Z,84.40
2019-02-02T17:52:54.614Z,84.73
2019-02-02T17:55:23.690Z,84.26
2019-02-02T17:57:51.589Z,84.57
2019-02-02T18:00:32.996Z,85.29
2019-02-02T18:03:00.838Z,84.65
2019-02-02T18:05:28.658Z,84.90
2019-02-02T18:07:56.444Z,84.78
2019-02-02T18:10:24.272Z,84.75
2019-02-02T18:12:52.072Z,84.75
2019-02-02T18:15:19.953Z,84.70
2019-02-02T18:17:47.778Z,83.68
2019-02-02T18:20:15.799Z,83.05
2019-02-02T18:22:43.720Z,83.50
2019-02-02T18:25:12.619Z,83.79
2019-02-02T18:27:40.545Z,83.66
2019-02-02T18:30:13.191Z,83.37
2019-02-02T18:32:41.080Z,83.99
2019-02-02T18:35:09.704Z,83.98
2019-02-02T18:37:37.514Z,83.71
2019-02-02T18:40:06.898Z,83.38
2019-02-02T18:42:34.672Z,83.49
2019-02-02T18:45:03.147Z,84.01
2019-02-02T18:47:31.029Z,83.86
2019-02-02T18:49:58.859Z,83.63
2019-02-02T18:52:26.689Z,83.44
2019-02-02T18:54:54.485Z,83.25
2019-02-02T18:57:22.332Z,83.30
2019-02-02T18:59:50.145Z,83.40
2019-02-02T19:02:17.965Z,83.46
2019-02-02T19:04:45.725Z,83.48
2019-02-02T19:07:13.493Z,83.72
2019-02-02T19:09:41.299Z,83.59
2019-02-02T19:12:09.276Z,83.67
2019-02-02T19:14:37.063Z,84.11
2019-02-02T19:17:04.917Z,83.45
2019-02-02T19:19:32.675Z,83.42
2019-02-02T19:22:00.437Z,83.98
2019-02-02T19:24:28.246Z,83.82
2019-02-02T19:26:56.015Z,83.35
2019-02-02T19:29:23.780Z,83.28
2019-02-02T19:31:51.559Z,83.93
2019-02-02T19:34:19.446Z,83.70
2019-02-02T19:36:47.235Z,83.64
2019-02-02T19:39:14.972Z,83.25
2019-02-02T19:41:42.748Z,82.95
2019-02-02T19:44:10.503Z,83.40
2019-02-02T19:46:38.349Z,83.60
2019-02-02T19:49:06.089Z,83.51
2019-02-02T19:51:33.858Z,83.32
2019-02-02T19:54:01.936Z,82.91
2019-02-02T19:56:29.730Z,83.22
2019-02-02T19:58:57.510Z,83.56
2019-02-02T20:01:25.322Z,83.77
2019-02-02T20:03:53.078Z,84.14
2019-02-02T20:06:20.866Z,84.21
2019-02-02T20:08:48.809Z,84.35
2019-02-02T20:11:16.610Z,83.94
2019-02-02T20:13:44.397Z,83.93
2019-02-02T20:16:12.124Z,84.06
2019-02-02T20:18:39.963Z,84.33
2019-02-02T20:21:07.833Z,84.12
2019-02-02T20:23:38.617Z,83.95
2019-02-02T20:26:05.423Z,83.91
2019-02-02T20:28:33.245Z,84.01
2019-02-02T20:31:01.044Z,83.94
2019-02-02T20:33:29.891Z,83.62
2019-02-02T20:35:57.686Z,83.61
2019-02-02T20:38:25.539Z,83.25
2019-02-02T20:40:53.340Z,82.95
2019-02-02T20:43:21.166Z,83.52
2019-02-02T20:45:48.951Z,83.16
2019-02-02T20:48:16.797Z,83.51
2019-02-02T20:50:44.638Z,84.12
2019-02-02T20:53:12.533Z,84.47
2019-02-02T20:55:43.246Z,84.72
2019-02-02T20:58:11.064Z,84.57
2019-02-02T21:00:39.121Z,83.83
2019-02-02T21:03:06.905Z,83.29
2019-02-02T21:05:34.711Z,83.30
2019-02-02T21:08:04.597Z,83.21
2019-02-02T21:10:32.447Z,83.26
2019-02-02T21:13:00.222Z,82.66
2019-02-02T21:15:28.125Z,82.93
2019-02-02T21:17:55.901Z,83.35
2019-02-02T21:20:26.192Z,83.02
2019-02-02T21:22:54.025Z,82.99
2019-02-02T21:25:22.146Z,82.56
2019-02-02T21:27:49.937Z,82.75
2019-02-02T21:30:26.130Z,82.20
2019-02-02T21:32:53.893Z,81.93
2019-02-02T21:35:22.311Z,82.04
2019-02-02T21:37:50.054Z,82.53
2019-02-02T21:40:21.011Z,82.80
2019-02-02T21:42:48.747Z,82.42
2019-02-02T21:45:16.649Z,82.55
2019-02-02T21:47:44.391Z,82.47
2019-02-02T21:50:17.923Z,82.59
2019-02-02T21:52:45.700Z,82.61
2019-02-02T21:55:16.398Z,83.14
2019-02-02T21:57:44.245Z,82.25
2019-02-02T22:00:21.644Z,82.40
2019-02-02T22:02:49.502Z,82.28
2019-02-02T22:05:17.416Z,83.34
2019-02-02T22:07:47.289Z,84.46
2019-02-02T22:10:15.076Z,84.13
2019-02-02T22:12:43.110Z,83.79
2019-02-02T22:15:17.927Z,83.44
2019-02-02T22:17:45.994Z,84.04
2019-02-02T22:20:14.428Z,83.88
2019-02-02T22:22:42.251Z,83.69
2019-02-02T22:25:22.552Z,83.92
2019-02-02T22:27:50.438Z,84.01
2019-02-02T22:30:21.520Z,84.24
2019-02-02T22:32:49.335Z,83.74
2019-02-02T22:35:17.102Z,83.58
2019-02-02T22:37:44.884Z,84.26
2019-02-02T22:40:16.019Z,83.81
2019-02-02T22:42:43.863Z,83.66
2019-02-02T22:45:14.529Z,83.56
2019-02-02T22:47:42.319Z,83.58
2019-02-02T22:50:13.210Z,83.58
2019-02-02T22:52:40.985Z,83.93
2019-02-02T22:55:09.661Z,84.78
2019-02-02T22:57:37.427Z,84.72
2019-02-02T23:01:01.127Z,85.00
2019-02-02T23:03:46.118Z,84.66
2019-02-02T23:07:02.885Z,83.84
2019-02-02T23:10:35.189Z,84.68
2019-02-02T23:13:37.165Z,85.36
2019-02-02T23:16:22.123Z,85.32
2019-02-02T23:18:50.309Z,84.67
2019-02-02T23:21:18.160Z,84.83
2019-02-02T23:23:45.950Z,84.97
2019-02-02T23:26:13.729Z,84.74
2019-02-02T23:28:41.485Z,85.16
2019-02-02T23:31:09.323Z,85.53
2019-02-02T23:33:37.386Z,85.17
2019-02-02T23:36:05.149Z,85.50
2019-02-02T23:38:32.917Z,85.35
2019-02-02T23:41:00.683Z,85.68
2019-02-02T23:43:28.522Z,85.52
2019-02-02T23:45:56.288Z,84.82
2019-02-02T23:48:24.320Z,84.53
2019-02-02T23:50:52.106Z,85.16
2019-02-02T23:53:19.857Z,85.48
2019-02-02T23:55:47.669Z,85.54
2019-02-02T23:58:15.448Z,86.32
